Latest Weather Observations for Dum In Mirrie

IDD60801

Issued at 12:31 pm CST Saturday 27 August 2016 (issued every 30 minutes, with the page automatically refreshed every 10 minutes)

About weather observations | Map of weather stations | Latest weather observations for NT | Other Formats
Station Details ID: 014277 Name: DUM IN MIRRIE AIRSTRIP Lat: -12.63 Lon: 130.37 Height: 3.5 m
Data from the previous 72 hours. | See also: Recent months at Dum In Mirrie
Date/Time
CST
Temp
°C
App
Temp
°C
Dew
Point
°C
Rel
Hum
%
Delta-T
°C
Wind Press
QNH
hPa
Press
MSL
hPa
Rain since
9am
mm
Dir  Spd
km/h
Gust
km/h
Spd
kts
Gust
kts
27/12:30pm - - - - - E 13 22 7 12 1014.1 1014.1 0.2
27/12:00pm - - - - - ENE 15 20 8 11 1014.6 1014.6 0.2
27/11:30am - - - - - E 17 28 9 15 1015.1 1015.1 0.2
27/11:00am - - - - - E 15 26 8 14 1015.4 1015.4 0.2
27/10:30am - - - - - E 17 24 9 13 1015.7 1015.7 0.2
27/10:00am - - - - - ENE 17 26 9 14 1015.8 1015.8 0.2
27/09:30am - - - - - E 15 26 8 14 1015.7 1015.7 0.0
27/09:00am - - - - - ENE 19 30 10 16 1015.4 1015.4 11.0
27/08:30am - - - - - ENE 15 28 8 15 1015.3 1015.3 11.0
27/08:00am - - - - - ENE 11 20 6 11 1015.0 1015.0 11.0
27/07:30am - - - - - ENE 11 17 6 9 1014.9 1014.9 11.0
27/07:00am - - - - - ENE 11 20 6 11 1014.6 1014.6 11.0
27/06:30am - - - - - ENE 9 13 5 7 1014.3 1014.3 11.0
27/06:00am - - - - - ENE 6 7 3 4 1013.8 1013.8 11.0
27/05:30am - - - - - ENE 6 11 3 6 1013.6 1013.6 11.0
27/05:00am - - - - - ENE 4 9 2 5 1013.4 1013.4 11.0
27/04:30am - - - - - NE 13 22 7 12 1013.5 1013.5 11.0
27/04:00am - - - - - ESE 4 9 2 5 1013.5 1013.5 0.0
27/03:30am - - - - - CALM 0 0 0 0 1013.4 1013.4 0.0
27/03:00am - - - - - ESE 4 6 2 3 1013.3 1013.3 0.0
27/02:30am - - - - - SSE 6 9 3 5 1013.1 1013.1 0.0
27/02:00am - - - - - SSE 4 6 2 3 1013.6 1013.6 0.0
27/01:30am - - - - - S 4 6 2 3 1013.8 1013.8 0.0
27/01:00am - - - - - E 4 6 2 3 1013.8 1013.8 0.0
27/12:30am - - - - - ESE 4 6 2 3 1013.9 1013.9 0.0
27/12:00am - - - - - ESE 4 7 2 4 1013.9 1013.9 0.0
 
Date/Time
CST
Temp
°C
App
Temp
°C
Dew
Point
°C
Rel
Hum
%
Delta-T
°C
Wind Press
QNH
hPa
Press
MSL
hPa
Rain since
9am
mm
Dir  Spd
km/h
Gust
km/h
Spd
kts
Gust
kts
26/11:30pm - - - - - ENE 2 2 1 1 1013.8 1013.8 0.0
26/11:00pm - - - - - E 4 6 2 3 1013.7 1013.7 0.0
26/10:30pm - - - - - E 4 6 2 3 1013.4 1013.4 0.0
26/10:00pm - - - - - CALM 0 0 0 0 1013.4 1013.4 0.0
26/09:30pm - - - - - ENE 2 6 1 3 1013.3 1013.3 0.0
26/09:00pm - - - - - ENE 4 6 2 3 1012.9 1012.9 0.0
26/08:30pm - - - - - NNE 7 13 4 7 1012.4 1012.4 0.0
26/08:00pm - - - - - NE 7 13 4 7 1012.1 1012.1 0.0
26/07:30pm - - - - - NNE 9 15 5 8 1011.7 1011.7 0.0
26/07:00pm - - - - - NNE 9 19 5 10 1011.3 1011.3 0.0
26/06:30pm - - - - - NE 13 22 7 12 1010.8 1010.8 0.0
26/06:00pm - - - - - NNE 15 26 8 14 1010.6 1010.6 0.0
26/05:30pm - - - - - NNE 11 22 6 12 1010.3 1010.3 0.0
26/05:00pm - - - - - NNE 15 22 8 12 1010.1 1010.1 0.0
26/04:30pm - - - - - NE 17 26 9 14 1009.9 1009.9 0.0
26/04:00pm - - - - - NNE 20 30 11 16 1009.8 1009.8 0.0
26/03:30pm - - - - - NNE 19 30 10 16 1010.0 1010.0 0.0
26/03:00pm - - - - - NNE 17 32 9 17 1010.2 1010.2 0.0
26/02:30pm - - - - - NNE 19 30 10 16 1010.7 1010.7 0.0
26/02:00pm - - - - - N 19 30 10 16 1011.1 1011.1 0.0
26/01:30pm 31.5 33.2 23.1 61 5.8 NNE 19 28 10 15 1011.5 1011.5 0.0
26/01:00pm 32.7 33.7 20.2 47 8.3 E 15 20 8 11 1011.9 1011.9 0.0
26/12:30pm 32.1 32.9 20.7 51 7.6 E 17 24 9 13 1012.2 1012.2 0.0
26/12:00pm 31.6 32.3 20.5 51 7.4 E 17 26 9 14 1012.6 1012.6 0.0
26/11:30am 31.1 32.3 20.7 54 6.9 E 15 26 8 14 1013.1 1013.1 0.0
26/11:00am 30.3 31.0 20.5 55 6.5 ESE 17 26 9 14 1013.3 1013.3 0.0
26/10:30am 30.6 31.9 20.8 56 6.5 ESE 15 28 8 15 1013.5 1013.5 0.0
26/10:00am 28.7 28.6 19.6 58 5.9 E 19 33 10 18 1013.6 1013.6 0.0
26/09:30am 28.1 27.8 18.2 55 6.3 ESE 17 26 9 14 1013.6 1013.6 0.0
26/09:00am 26.9 25.8 15.3 49 7.0 ESE 15 30 8 16 1013.6 1013.6 0.0
26/08:30am 26.1 25.3 13.9 47 7.2 SE 11 19 6 10 1013.5 1013.5 0.0
26/08:00am 24.5 23.4 12.1 46 7.1 SE 9 19 5 10 1013.3 1013.3 0.0
26/07:30am 23.5 23.1 12.5 50 6.3 SE 6 11 3 6 1013.0 1013.0 0.0
26/07:00am 23.4 22.5 12.7 51 6.1 SSE 9 17 5 9 1012.6 1012.6 0.0
26/06:30am 23.6 23.2 12.9 51 6.2 S 7 13 4 7 1012.3 1012.3 0.0
26/06:00am 23.8 23.3 12.8 50 6.3 SE 7 15 4 8 1011.8 1011.8 0.0
26/05:30am 24.6 24.1 13.8 51 6.3 SSE 9 19 5 10 1011.5 1011.5 0.0
26/05:00am 24.9 24.6 14.4 52 6.2 SSE 9 19 5 10 1011.3 1011.3 0.0
26/04:30am 24.3 25.1 16.3 61 4.9 SSE 7 15 4 8 1011.3 1011.3 0.0
26/04:00am 24.4 25.5 16.6 61 4.8 S 6 15 3 8 1011.3 1011.3 0.0
26/03:30am 24.5 26.5 18.7 70 3.7 S 6 13 3 7 1011.4 1011.4 0.0
26/03:00am 25.0 28.2 19.8 73 3.4 S 2 6 1 3 1011.2 1011.2 0.0
26/02:30am 25.4 28.5 20.2 73 3.4 SSW 4 9 2 5 1011.2 1011.2 0.0
26/02:00am 25.1 27.9 20.4 75 3.1 S 6 9 3 5 1011.4 1011.4 0.0
26/01:30am 25.3 28.1 20.5 75 3.1 S 6 13 3 7 1011.5 1011.5 0.0
26/01:00am 26.3 29.4 20.2 69 4.0 S 4 7 2 4 1011.6 1011.6 0.0
26/12:30am 27.2 29.1 20.5 67 4.4 SSW 11 17 6 9 1011.5 1011.5 0.0
26/12:00am 27.0 29.4 21.5 72 3.7 SW 11 19 6 10 1011.5 1011.5 0.0
 
Date/Time
CST
Temp
°C
App
Temp
°C
Dew
Point
°C
Rel
Hum
%
Delta-T
°C
Wind Press
QNH
hPa
Press
MSL
hPa
Rain since
9am
mm
Dir  Spd
km/h
Gust
km/h
Spd
kts
Gust
kts
25/11:30pm 26.9 30.6 22.5 77 3.0 SW 7 15 4 8 1011.5 1011.5 0.0
25/11:00pm 26.9 30.6 22.3 76 3.1 SW 6 11 3 6 1011.4 1011.4 0.0
25/10:30pm 26.9 30.6 22.3 76 3.1 SW 6 15 3 8 1011.3 1011.3 0.0
25/10:00pm 26.9 30.5 22.3 76 3.1 SW 7 13 4 7 1011.3 1011.3 0.0
25/09:30pm 26.9 31.1 22.5 77 3.0 SW 4 9 2 5 1011.3 1011.3 0.0
25/09:00pm 27.1 31.6 22.3 75 3.2 WSW 2 9 1 5 1010.8 1010.8 0.0
25/08:30pm 27.2 30.6 21.7 72 3.7 WSW 6 13 3 7 1010.4 1010.4 0.0
25/08:00pm 27.3 29.5 21.1 69 4.1 W 11 19 6 10 1010.2 1010.2 0.0
25/07:30pm 27.4 30.4 21.2 69 4.1 WSW 7 19 4 10 1010.0 1010.0 0.0
25/07:00pm 27.5 29.9 20.1 64 4.8 W 7 15 4 8 1009.6 1009.6 0.0
25/06:30pm 27.8 29.3 19.8 61 5.2 W 11 17 6 9 1009.2 1009.2 0.0
25/06:00pm 28.5 29.4 19.2 57 6.0 W 13 20 7 11 1008.9 1008.9 0.0
25/05:30pm 29.2 31.8 20.1 58 6.0 WSW 6 11 3 6 1008.7 1008.7 0.0
25/05:00pm 29.4 31.3 19.7 56 6.3 WSW 9 15 5 8 1008.5 1008.5 0.0
25/04:30pm 29.2 30.3 20.4 59 5.8 WSW 15 22 8 12 1008.4 1008.4 0.0
25/04:00pm 30.3 31.6 19.3 51 7.2 W 11 19 6 10 1008.4 1008.4 0.0
25/03:30pm 30.9 32.6 20.2 53 7.1 W 11 19 6 10 1008.5 1008.5 0.0
25/03:00pm 30.9 32.7 19.6 51 7.4 W 9 17 5 9 1008.7 1008.7 0.0
25/02:30pm 31.0 32.9 19.7 51 7.4 W 9 17 5 9 1009.0 1009.0 0.0
25/02:00pm 30.6 31.5 18.3 47 7.9 W 11 17 6 9 1009.3 1009.3 0.0
25/01:30pm 30.6 31.8 18.3 47 7.9 W 9 13 5 7 1009.8 1009.8 0.0
25/01:00pm 30.7 32.3 19.1 50 7.5 W 9 13 5 7 1010.2 1010.2 0.0
25/12:30pm 29.6 30.8 19.0 53 6.9 WSW 11 17 6 9 1010.6 1010.6 0.0
25/12:00pm 29.1 30.0 18.5 52 6.8 W 11 17 6 9 1011.0 1011.0 0.0
25/11:30am 29.3 30.3 17.8 50 7.3 W 9 13 5 7 1011.3 1011.3 0.0
25/11:00am 30.3 30.0 12.7 34 10.4 SSW 6 11 3 6 1011.5 1011.5 0.0
25/10:30am 29.8 29.8 13.5 36 9.7 SSE 6 11 3 6 1011.6 1011.6 0.0
25/10:00am 28.9 29.1 14.3 40 8.8 SSE 6 11 3 6 1011.8 1011.8 0.0
25/09:30am 27.9 29.3 17.4 52 6.6 S 6 11 3 6 1011.8 1011.8 0.0
25/09:00am 26.3 28.1 18.7 63 4.9 SSE 7 15 4 8 1011.8 1011.8 0.0
25/08:30am 24.9 27.1 19.7 73 3.4 SE 7 13 4 7 1011.7 1011.7 0.0
25/08:00am 23.5 25.7 19.6 79 2.5 SE 7 15 4 8 1011.6 1011.6 0.0
25/07:30am 23.1 25.6 20.2 84 1.9 SSE 7 15 4 8 1011.1 1011.1 0.0
25/07:00am 22.7 25.7 20.8 89 1.2 S 6 11 3 6 1010.6 1010.6 0.0
25/06:30am 23.3 26.5 21.2 88 1.4 S 6 13 3 7 1010.0 1010.0 0.0
25/06:00am 23.9 28.0 22.2 90 1.1 S 4 7 2 4 1009.5 1009.5 0.0
25/05:30am 24.3 28.4 22.2 88 1.4 S 4 7 2 4 1009.3 1009.3 0.0
25/05:00am 25.6 28.6 21.3 77 2.8 SSW 7 11 4 6 1009.1 1009.1 0.0
25/04:30am 25.6 29.1 21.9 80 2.5 SW 6 11 3 6 1008.9 1008.9 0.0
25/04:00am 25.7 29.8 22.2 81 2.3 SW 4 6 2 3 1008.9 1008.9 0.0
25/03:30am 24.7 29.2 22.2 86 1.7 SW 2 6 1 3 1008.9 1008.9 0.0
25/03:00am 24.0 28.2 21.7 87 1.5 W 2 4 1 2 1008.9 1008.9 0.0
25/02:30am 23.7 28.0 21.2 86 1.6 CALM 0 0 0 0 1009.1 1009.1 0.0
25/02:00am 24.4 28.7 21.1 82 2.2 CALM 0 2 0 1 1009.4 1009.4 0.0
25/01:30am 26.0 30.4 22.1 79 2.6 WSW 2 4 1 2 1009.8 1009.8 0.0
25/01:00am 25.6 30.2 22.5 83 2.1 WSW 2 4 1 2 1010.1 1010.1 0.0
25/12:30am 24.0 27.8 21.7 87 1.5 WSW 4 6 2 3 1010.3 1010.3 0.0
25/12:00am 24.1 28.1 20.6 81 2.3 CALM 0 0 0 0 1010.3 1010.3 0.0
 
Date/Time
CST
Temp
°C
App
Temp
°C
Dew
Point
°C
Rel
Hum
%
Delta-T
°C
Wind Press
QNH
hPa
Press
MSL
hPa
Rain since
9am
mm
Dir  Spd
km/h
Gust
km/h
Spd
kts
Gust
kts
24/11:30pm 25.8 30.3 21.5 77 2.9 CALM 0 4 0 2 1010.3 1010.3 0.0
24/11:00pm 26.2 30.4 21.8 77 2.9 WSW 2 7 1 4 1010.5 1010.5 0.0
24/10:30pm 26.3 30.1 21.7 76 3.1 WSW 4 9 2 5 1010.6 1010.6 0.0
24/10:00pm 26.5 29.8 21.9 76 3.1 WSW 7 15 4 8 1010.5 1010.5 0.0
24/09:30pm 26.4 30.3 21.8 76 3.1 SW 4 11 2 6 1010.4 1010.4 0.0
24/09:00pm 26.4 29.9 21.8 76 3.1 WSW 6 13 3 7 1010.2 1010.2 0.0
24/08:30pm 26.4 29.9 21.8 76 3.1 WSW 6 11 3 6 1009.9 1009.9 0.0
24/08:00pm 26.6 29.6 22.0 76 3.1 WSW 9 15 5 8 1009.5 1009.5 0.0
24/07:30pm 26.6 30.0 22.0 76 3.1 WSW 7 17 4 9 1009.2 1009.2 0.0
24/07:00pm 26.7 30.3 22.1 76 3.1 WSW 6 11 3 6 1008.9 1008.9 0.0
24/06:30pm 26.9 30.2 21.9 74 3.4 WSW 7 19 4 10 1008.5 1008.5 0.0
24/06:00pm 27.7 30.3 22.0 71 3.8 WSW 11 20 6 11 1008.3 1008.3 0.0
24/05:30pm 28.2 30.7 21.7 68 4.4 WSW 11 20 6 11 1008.1 1008.1 0.0
24/05:00pm 28.7 31.5 21.5 65 4.8 WSW 9 19 5 10 1007.8 1007.8 0.0
24/04:30pm 28.9 30.7 21.1 62 5.2 WSW 13 22 7 12 1007.7 1007.7 0.0
24/04:00pm 28.9 29.8 20.9 62 5.3 WSW 17 22 9 12 1007.7 1007.7 0.0
24/03:30pm 29.4 30.6 21.4 62 5.4 W 17 24 9 13 1007.8 1007.8 0.0
24/03:00pm 29.3 30.7 21.0 61 5.5 W 15 22 8 12 1008.0 1008.0 0.0
24/02:30pm 29.4 31.3 21.4 62 5.4 W 13 19 7 10 1008.3 1008.3 0.0
24/02:00pm 30.3 33.2 21.7 60 5.8 WSW 9 15 5 8 1008.6 1008.6 0.0
24/01:30pm 29.7 31.9 20.5 57 6.1 WSW 9 15 5 8 1009.2 1009.2 0.0
24/01:00pm 29.5 31.7 21.2 61 5.5 WSW 11 20 6 11 1009.8 1009.8 0.0

Other Formats:

Comma delimited format used in spreadsheet applications
http://www.bom.gov.au/fwo/IDD60801/IDD60801.94116.axf

JavaScript Object Notation format (JSON) in row-major order
http://www.bom.gov.au/fwo/IDD60801/IDD60801.94116.json